Terminal Aerodrome Forecast
Issued by NWS Wilmington, OH

Current Version | Previous Version | Text Only | Print | Product List | Glossary Off
Versions: 1 2 3 4 5 6 7 8 9 10 11 12 13 14 15 16 17

276
FTUS41 KILN 180611 AAA
TAFDAY
TAF AMD
KDAY 180611Z 1806/1906 22007KT P6SM SCT005 SCT040
      TEMPO 1806/1809 5SM BR BKN005
     FM181500 27012G18KT P6SM SCT045
     FM190000 28008KT P6SM SCT250=

USA.gov is the U.S. government's official web portal to all federal, state and local government web resources and services.